createdAt,value
2017-02-26T00:00:09.422Z,7.21
2017-02-26T00:00:50.084Z,7.17
2017-02-26T00:01:30.728Z,7.17
2017-02-26T00:02:11.383Z,7.18
2017-02-26T00:02:53.164Z,7.2
2017-02-26T00:03:33.816Z,7.15
2017-02-26T00:04:14.468Z,7.14
2017-02-26T00:04:55.120Z,7.2
2017-02-26T00:05:35.899Z,7.17
2017-02-26T00:06:16.532Z,7.21
2017-02-26T00:06:57.182Z,7.21
2017-02-26T00:07:37.844Z,7.18
2017-02-26T00:08:18.520Z,7.11
2017-02-26T00:08:59.139Z,7.17
2017-02-26T00:09:39.797Z,7.17
2017-02-26T00:10:20.485Z,7.18
2017-02-26T00:11:01.108Z,7.18
2017-02-26T00:11:41.761Z,7.13
2017-02-26T00:12:22.412Z,7.17
2017-02-26T00:13:03.059Z,7.18
2017-02-26T00:13:43.734Z,7.14
2017-02-26T00:14:24.303Z,7.11
2017-02-26T00:15:04.949Z,7.11
2017-02-26T00:15:45.638Z,7.1
2017-02-26T00:16:26.231Z,7.17
2017-02-26T00:17:06.803Z,7.07
2017-02-26T00:17:47.470Z,7.11
2017-02-26T00:18:28.143Z,7.11
2017-02-26T00:19:08.843Z,7.11
2017-02-26T00:19:49.495Z,7.1
2017-02-26T00:20:30.145Z,7.15
2017-02-26T00:21:12.741Z,7.15
2017-02-26T00:21:53.404Z,7.13
2017-02-26T00:22:34.051Z,7.1
2017-02-26T00:23:14.731Z,7.17
2017-02-26T00:23:55.355Z,7.15
2017-02-26T00:24:36.007Z,7.15
2017-02-26T00:25:16.658Z,7.11
2017-02-26T00:25:57.319Z,7.17
2017-02-26T00:26:37.968Z,7.1
2017-02-26T00:27:18.658Z,7.18
2017-02-26T00:27:59.270Z,7.13
2017-02-26T00:28:39.861Z,7.1
2017-02-26T00:29:20.467Z,7.15
2017-02-26T00:30:01.091Z,7.14
2017-02-26T00:30:41.737Z,7.15
2017-02-26T00:31:22.448Z,7.14
2017-02-26T00:32:03.030Z,7.1
2017-02-26T00:32:43.665Z,7.1
2017-02-26T00:33:24.349Z,7.13
2017-02-26T00:34:04.944Z,7.15
2017-02-26T00:34:45.669Z,7.11
2017-02-26T00:35:26.349Z,7.1
2017-02-26T00:36:06.975Z,7.1
2017-02-26T00:36:48.665Z,7.21
2017-02-26T00:37:29.332Z,7.15
2017-02-26T00:38:09.914Z,7.11
2017-02-26T00:38:50.591Z,7.1
2017-02-26T00:39:31.290Z,7.1
2017-02-26T00:40:11.944Z,7.1
2017-02-26T00:40:52.629Z,7.14
2017-02-26T00:41:33.257Z,7.11
2017-02-26T00:42:13.926Z,7.06
2017-02-26T00:42:54.576Z,7.13
2017-02-26T00:43:35.212Z,7.1
2017-02-26T00:44:15.864Z,7.07
2017-02-26T00:44:56.534Z,7.1
2017-02-26T00:45:37.171Z,7.1
2017-02-26T00:46:17.828Z,7.15
2017-02-26T00:46:58.478Z,7.11
2017-02-26T00:47:39.135Z,7.02
2017-02-26T00:48:19.783Z,7.14
2017-02-26T00:49:00.439Z,7.13
2017-02-26T00:49:41.054Z,7
2017-02-26T00:50:21.673Z,7.14
2017-02-26T00:51:02.297Z,7.13
2017-02-26T00:51:42.878Z,7.05
2017-02-26T00:52:23.527Z,7.11
2017-02-26T00:53:04.151Z,7.11
2017-02-26T00:53:44.727Z,7.03
2017-02-26T00:54:25.450Z,7.13
2017-02-26T00:55:06.143Z,7
2017-02-26T00:55:47.841Z,7.07
2017-02-26T00:56:29.459Z,7.03
2017-02-26T00:57:10.143Z,7.02
2017-02-26T00:57:50.797Z,7.02
2017-02-26T00:58:31.505Z,7.02
2017-02-26T00:59:12.091Z,7.02
2017-02-26T00:59:52.753Z,7.07
2017-02-26T01:00:33.345Z,7.11
2017-02-26T01:01:13.963Z,7.11
2017-02-26T01:01:54.689Z,7.11
2017-02-26T01:02:35.306Z,6.97
2017-02-26T01:03:15.915Z,7.03
2017-02-26T01:03:56.596Z,6.96
2017-02-26T01:04:37.191Z,7.07
2017-02-26T01:05:17.863Z,6.97
2017-02-26T01:05:58.452Z,6.96
2017-02-26T01:06:39.117Z,7.07
2017-02-26T01:07:19.764Z,6.96
2017-02-26T01:08:00.457Z,7.13
2017-02-26T01:08:41.050Z,7.11
2017-02-26T01:09:21.688Z,7.05
2017-02-26T01:10:02.316Z,7.11
2017-02-26T01:10:42.919Z,6.99
2017-02-26T01:11:23.543Z,7.11
2017-02-26T01:12:04.171Z,7.02
2017-02-26T01:12:44.755Z,7.07
2017-02-26T01:13:25.394Z,7.11
2017-02-26T01:14:06.025Z,7.06
2017-02-26T01:14:46.637Z,7.11
2017-02-26T01:15:27.284Z,7.1
2017-02-26T01:16:07.904Z,7.06
2017-02-26T01:16:48.564Z,7.06
2017-02-26T01:17:29.225Z,6.99
2017-02-26T01:18:09.863Z,7.02
2017-02-26T01:18:50.529Z,6.96
2017-02-26T01:19:31.167Z,7.05
2017-02-26T01:20:11.821Z,7.1
2017-02-26T01:20:52.475Z,7.1
2017-02-26T01:21:33.126Z,7.02
2017-02-26T01:22:16.065Z,6.99
2017-02-26T01:22:56.985Z,7.13
2017-02-26T01:23:37.456Z,6.99
2017-02-26T01:24:18.385Z,7
2017-02-26T01:24:58.991Z,7.06
2017-02-26T01:25:39.684Z,7.07
2017-02-26T01:26:20.294Z,7.1
2017-02-26T01:27:00.932Z,7.14
2017-02-26T01:27:41.602Z,7.1
2017-02-26T01:28:22.198Z,7.07
2017-02-26T01:29:02.765Z,7.06
2017-02-26T01:29:43.829Z,7.15
2017-02-26T01:30:24.406Z,7.02
2017-02-26T01:31:05.011Z,7.14
2017-02-26T01:31:45.581Z,7
2017-02-26T01:32:26.232Z,7.14
2017-02-26T01:33:06.957Z,7.13
2017-02-26T01:33:47.622Z,6.99
2017-02-26T01:34:29.117Z,6.99
2017-02-26T01:35:09.769Z,6.96
2017-02-26T01:35:50.413Z,7.02
2017-02-26T01:36:31.085Z,7.11
2017-02-26T01:37:11.740Z,6.97
2017-02-26T01:37:52.381Z,7
2017-02-26T01:38:33.028Z,7.14
2017-02-26T01:39:13.719Z,6.97
2017-02-26T01:39:54.341Z,7.06
2017-02-26T01:40:35.018Z,7.02
2017-02-26T01:41:15.635Z,7.14
2017-02-26T01:41:56.307Z,7.07
2017-02-26T01:42:36.974Z,7
2017-02-26T01:43:18.631Z,7
2017-02-26T01:43:59.281Z,6.99
2017-02-26T01:44:39.915Z,7.02
2017-02-26T01:45:20.491Z,7.02
2017-02-26T01:46:01.147Z,6.99
2017-02-26T01:46:41.771Z,6.96
2017-02-26T01:47:22.343Z,6.99
2017-02-26T01:48:02.998Z,6.99
2017-02-26T01:48:43.625Z,6.99
2017-02-26T01:49:24.203Z,6.99
2017-02-26T01:50:04.855Z,6.96
2017-02-26T01:50:45.435Z,6.89
2017-02-26T01:51:28.090Z,7
2017-02-26T01:52:08.700Z,7
2017-02-26T01:52:49.345Z,6.99
2017-02-26T01:53:29.997Z,6.99
2017-02-26T01:54:10.702Z,7
2017-02-26T01:54:51.288Z,6.88
2017-02-26T01:55:31.921Z,6.87
2017-02-26T01:56:12.504Z,6.96
2017-02-26T01:56:53.210Z,6.95
2017-02-26T01:57:34.721Z,6.99
2017-02-26T01:58:15.354Z,6.97
2017-02-26T01:58:56.036Z,6.84
2017-02-26T01:59:37.665Z,6.81
2017-02-26T02:00:18.233Z,6.93
2017-02-26T02:00:58.882Z,6.95
2017-02-26T02:01:39.570Z,6.93
2017-02-26T02:02:20.168Z,6.87
2017-02-26T02:03:00.738Z,6.82
2017-02-26T02:03:41.392Z,6.88
2017-02-26T02:04:22.077Z,6.88
2017-02-26T02:05:02.731Z,6.88
2017-02-26T02:05:43.391Z,6.85
2017-02-26T02:06:24.035Z,6.84
2017-02-26T02:07:04.695Z,6.93
2017-02-26T02:07:45.344Z,6.88
2017-02-26T02:08:26.004Z,6.84
2017-02-26T02:09:06.653Z,6.89
2017-02-26T02:09:47.301Z,6.88
2017-02-26T02:10:27.921Z,6.85
2017-02-26T02:11:08.567Z,6.82
2017-02-26T02:11:49.223Z,6.85
2017-02-26T02:12:29.867Z,6.84
2017-02-26T02:13:10.560Z,6.97
2017-02-26T02:13:51.212Z,6.88
2017-02-26T02:14:31.830Z,6.87
2017-02-26T02:15:12.423Z,7
2017-02-26T02:15:54.059Z,6.82
2017-02-26T02:16:34.660Z,6.97
2017-02-26T02:17:15.267Z,6.97
2017-02-26T02:17:55.878Z,6.84
2017-02-26T02:18:36.968Z,6.93
2017-02-26T02:19:17.548Z,6.88
2017-02-26T02:19:58.179Z,6.88
2017-02-26T02:20:38.840Z,6.79
2017-02-26T02:21:19.486Z,6.84
2017-02-26T02:22:00.197Z,6.82
2017-02-26T02:22:40.897Z,6.89
2017-02-26T02:23:21.571Z,6.93
2017-02-26T02:24:02.207Z,6.87
2017-02-26T02:24:42.883Z,6.99
2017-02-26T02:25:23.534Z,6.85
2017-02-26T02:26:04.190Z,6.96
2017-02-26T02:26:44.841Z,6.89
2017-02-26T02:27:25.475Z,6.85
2017-02-26T02:28:06.140Z,6.87
2017-02-26T02:28:46.769Z,6.93
2017-02-26T02:29:27.464Z,6.87
2017-02-26T02:30:08.075Z,6.84
2017-02-26T02:30:48.761Z,6.89
2017-02-26T02:31:29.391Z,6.87
2017-02-26T02:32:10.048Z,6.84
2017-02-26T02:32:50.689Z,6.88
2017-02-26T02:33:31.388Z,6.84
2017-02-26T02:34:12.018Z,6.81
2017-02-26T02:34:52.687Z,6.85
2017-02-26T02:35:33.307Z,6.88
2017-02-26T02:36:13.981Z,6.88
2017-02-26T02:36:54.629Z,6.87
2017-02-26T02:37:35.261Z,6.87
2017-02-26T02:38:15.935Z,6.92
2017-02-26T02:38:56.570Z,6.82
2017-02-26T02:39:37.236Z,6.81
2017-02-26T02:40:17.880Z,6.87
2017-02-26T02:40:58.528Z,6.87
2017-02-26T02:41:39.183Z,6.82
2017-02-26T02:42:20.870Z,6.81
2017-02-26T02:43:01.518Z,6.82
2017-02-26T02:43:42.185Z,6.77
2017-02-26T02:44:22.836Z,6.81
2017-02-26T02:45:03.476Z,6.77
2017-02-26T02:45:44.122Z,6.79
2017-02-26T02:46:24.859Z,6.84
2017-02-26T02:47:05.559Z,6.72
2017-02-26T02:47:46.191Z,6.81
2017-02-26T02:48:26.843Z,6.79
2017-02-26T02:49:07.495Z,6.79
2017-02-26T02:49:48.157Z,6.75
2017-02-26T02:50:29.252Z,6.81
2017-02-26T02:51:09.870Z,6.79
2017-02-26T02:51:50.516Z,6.82
2017-02-26T02:52:31.182Z,6.75
2017-02-26T02:53:11.813Z,6.75
2017-02-26T02:53:52.482Z,6.79
2017-02-26T02:54:34.720Z,6.79
2017-02-26T02:55:15.374Z,6.77
2017-02-26T02:55:55.984Z,6.78
2017-02-26T02:56:37.683Z,6.77
2017-02-26T02:57:18.330Z,6.81
2017-02-26T02:57:59.005Z,6.78
2017-02-26T02:58:39.637Z,6.75
2017-02-26T02:59:20.265Z,6.78
2017-02-26T03:00:00.930Z,6.78
2017-02-26T03:00:41.621Z,6.77
2017-02-26T03:01:22.213Z,6.81
2017-02-26T03:02:02.882Z,6.74
2017-02-26T03:02:43.526Z,6.7
2017-02-26T03:03:24.212Z,6.67
2017-02-26T03:04:04.836Z,6.74
2017-02-26T03:04:45.492Z,6.74
2017-02-26T03:05:26.177Z,6.79
2017-02-26T03:06:06.785Z,6.64
2017-02-26T03:06:47.440Z,6.64
2017-02-26T03:07:28.109Z,6.72
2017-02-26T03:08:08.787Z,6.69
2017-02-26T03:08:49.403Z,6.67
2017-02-26T03:09:30.088Z,6.69
2017-02-26T03:10:10.711Z,6.67
2017-02-26T03:10:51.369Z,6.64
2017-02-26T03:11:32.009Z,6.67
2017-02-26T03:12:12.719Z,6.72
2017-02-26T03:12:53.316Z,6.64
2017-02-26T03:13:33.981Z,6.69
2017-02-26T03:14:14.625Z,6.67
2017-02-26T03:14:55.225Z,6.67
2017-02-26T03:15:35.910Z,6.67
2017-02-26T03:16:16.469Z,6.69
2017-02-26T03:16:57.143Z,6.66
2017-02-26T03:17:37.819Z,6.69
2017-02-26T03:18:18.419Z,6.57
2017-02-26T03:18:58.999Z,6.62
2017-02-26T03:19:39.635Z,6.59
2017-02-26T03:20:20.237Z,6.6
2017-02-26T03:21:00.932Z,6.74
2017-02-26T03:21:41.515Z,6.72
2017-02-26T03:22:22.149Z,6.62
2017-02-26T03:23:02.760Z,6.64
2017-02-26T03:23:43.435Z,6.69
2017-02-26T03:24:24.031Z,6.6
2017-02-26T03:25:04.701Z,6.69
2017-02-26T03:25:45.387Z,6.63
2017-02-26T03:26:25.967Z,6.64
2017-02-26T03:27:06.622Z,6.66
2017-02-26T03:27:47.292Z,6.63
2017-02-26T03:28:27.967Z,6.62
2017-02-26T03:29:08.582Z,6.7
2017-02-26T03:29:49.225Z,6.74
2017-02-26T03:30:29.876Z,6.69
2017-02-26T03:31:10.536Z,6.66
2017-02-26T03:31:51.213Z,6.67
2017-02-26T03:32:31.850Z,6.67
2017-02-26T03:33:12.511Z,6.64
2017-02-26T03:33:54.192Z,6.66
2017-02-26T03:34:34.823Z,6.7
2017-02-26T03:35:15.513Z,6.66
2017-02-26T03:35:56.212Z,6.64
2017-02-26T03:36:36.775Z,6.64
2017-02-26T03:37:17.454Z,6.69
2017-02-26T03:37:58.136Z,6.74
2017-02-26T03:38:38.825Z,6.66
2017-02-26T03:39:19.381Z,6.69
2017-02-26T03:40:00.037Z,6.69
2017-02-26T03:40:40.690Z,6.69
2017-02-26T03:41:21.266Z,6.67
2017-02-26T03:42:01.904Z,6.7
2017-02-26T03:42:42.951Z,6.69
2017-02-26T03:43:23.515Z,6.69
2017-02-26T03:44:04.176Z,6.77
2017-02-26T03:44:44.802Z,6.62
2017-02-26T03:45:25.389Z,6.69
2017-02-26T03:46:06.027Z,6.63
2017-02-26T03:46:46.663Z,6.74
2017-02-26T03:47:27.228Z,6.7
2017-02-26T03:48:07.917Z,6.69
2017-02-26T03:48:48.622Z,6.63
2017-02-26T03:49:29.192Z,6.7
2017-02-26T03:50:10.868Z,6.75
2017-02-26T03:50:51.511Z,6.77
2017-02-26T03:51:32.082Z,6.74
2017-02-26T03:52:12.729Z,6.74
2017-02-26T03:52:53.458Z,6.74
2017-02-26T03:53:34.039Z,6.78
2017-02-26T03:54:14.682Z,6.78
2017-02-26T03:54:55.312Z,6.74
2017-02-26T03:55:35.966Z,6.84
2017-02-26T03:56:16.622Z,6.78
2017-02-26T03:56:57.273Z,6.79
2017-02-26T03:57:37.942Z,6.79
2017-02-26T03:58:18.579Z,6.81
2017-02-26T03:58:59.233Z,6.81
2017-02-26T03:59:39.896Z,6.82
2017-02-26T04:00:21.575Z,6.77
2017-02-26T04:01:02.225Z,6.79
2017-02-26T04:01:42.866Z,6.81
2017-02-26T04:02:23.537Z,6.79
2017-02-26T04:03:04.089Z,6.87
2017-02-26T04:03:44.725Z,6.79
2017-02-26T04:04:25.390Z,6.78
2017-02-26T04:05:06.039Z,6.78
2017-02-26T04:05:46.710Z,6.84
2017-02-26T04:06:27.340Z,6.85
2017-02-26T04:07:08.015Z,6.85
2017-02-26T04:07:48.660Z,6.88
2017-02-26T04:08:29.308Z,6.85
2017-02-26T04:09:09.954Z,6.82
2017-02-26T04:09:50.532Z,6.87
2017-02-26T04:10:31.178Z,6.82
2017-02-26T04:11:11.865Z,6.85
2017-02-26T04:11:52.473Z,6.82
2017-02-26T04:12:33.027Z,6.87
2017-02-26T04:13:13.675Z,6.87
2017-02-26T04:13:54.270Z,6.87
2017-02-26T04:14:34.973Z,6.81
2017-02-26T04:15:15.626Z,6.87
2017-02-26T04:15:56.284Z,6.87
2017-02-26T04:16:36.928Z,6.82
2017-02-26T04:17:17.581Z,6.87
2017-02-26T04:17:58.240Z,6.85
2017-02-26T04:18:38.887Z,6.85
2017-02-26T04:19:19.541Z,6.81
2017-02-26T04:20:00.194Z,6.85
2017-02-26T04:20:40.844Z,6.82
2017-02-26T04:21:21.498Z,6.85
2017-02-26T04:22:02.149Z,6.78
2017-02-26T04:22:42.803Z,6.85
2017-02-26T04:23:23.459Z,6.79
2017-02-26T04:24:04.114Z,6.88
2017-02-26T04:24:44.766Z,6.79
2017-02-26T04:25:25.416Z,6.82
2017-02-26T04:26:06.068Z,6.79
2017-02-26T04:26:47.744Z,6.84
2017-02-26T04:27:29.423Z,6.75
2017-02-26T04:28:10.473Z,6.77
2017-02-26T04:28:51.138Z,6.78
2017-02-26T04:29:32.199Z,6.75
2017-02-26T04:30:12.854Z,6.75
2017-02-26T04:30:53.509Z,6.77
2017-02-26T04:31:34.166Z,6.78
2017-02-26T04:32:14.811Z,6.78
2017-02-26T04:32:55.463Z,6.79
2017-02-26T04:33:36.123Z,6.78
2017-02-26T04:34:16.770Z,6.75
2017-02-26T04:34:57.351Z,6.81
2017-02-26T04:35:38.036Z,6.79
2017-02-26T04:36:18.684Z,6.78
2017-02-26T04:36:59.279Z,6.81
2017-02-26T04:37:39.854Z,6.77
2017-02-26T04:38:20.491Z,6.78
2017-02-26T04:39:01.500Z,6.82
2017-02-26T04:39:43.221Z,6.84
2017-02-26T04:40:23.875Z,6.78
2017-02-26T04:41:05.551Z,6.92
2017-02-26T04:41:46.213Z,6.89
2017-02-26T04:42:26.857Z,6.82
2017-02-26T04:43:07.511Z,6.81
2017-02-26T04:43:48.169Z,6.88
2017-02-26T04:44:29.847Z,6.84
2017-02-26T04:45:10.410Z,6.87
2017-02-26T04:45:51.072Z,6.85
2017-02-26T04:46:31.652Z,6.85
2017-02-26T04:47:12.254Z,6.85
2017-02-26T04:47:52.825Z,6.87
2017-02-26T04:48:33.467Z,6.87
2017-02-26T04:49:14.082Z,6.84
2017-02-26T04:49:55.679Z,6.87
2017-02-26T04:50:36.332Z,6.88
2017-02-26T04:51:16.985Z,6.88
2017-02-26T04:51:57.638Z,6.84
2017-02-26T04:52:39.321Z,6.79
2017-02-26T04:53:20.381Z,6.92
2017-02-26T04:54:01.037Z,6.87
2017-02-26T04:54:41.687Z,6.85
2017-02-26T04:55:22.341Z,6.87
2017-02-26T04:56:02.993Z,6.81
2017-02-26T04:56:44.055Z,6.85
2017-02-26T04:57:24.708Z,6.84
2017-02-26T04:58:05.304Z,6.85
2017-02-26T04:58:45.911Z,6.81
2017-02-26T04:59:26.567Z,6.89
2017-02-26T05:00:07.134Z,6.81
2017-02-26T05:00:47.788Z,6.87
2017-02-26T05:01:28.373Z,6.87
2017-02-26T05:02:08.944Z,6.82
2017-02-26T05:02:49.524Z,6.87
2017-02-26T05:03:30.195Z,6.89
2017-02-26T05:04:10.893Z,6.82
2017-02-26T05:04:51.484Z,6.85
2017-02-26T05:05:32.133Z,6.88
2017-02-26T05:06:12.791Z,6.87
2017-02-26T05:06:53.438Z,6.78
2017-02-26T05:07:34.093Z,6.82
2017-02-26T05:08:14.847Z,6.82
2017-02-26T05:08:55.910Z,6.81
2017-02-26T05:09:36.562Z,6.85
2017-02-26T05:10:17.135Z,6.87
2017-02-26T05:10:57.798Z,6.78
2017-02-26T05:11:38.443Z,6.88
2017-02-26T05:12:19.091Z,6.81
2017-02-26T05:12:59.745Z,6.85
2017-02-26T05:13:40.387Z,6.87
2017-02-26T05:14:21.051Z,6.85
2017-02-26T05:15:01.682Z,6.89
2017-02-26T05:15:42.254Z,6.89
2017-02-26T05:16:22.925Z,6.84
2017-02-26T05:17:03.539Z,6.84
2017-02-26T05:17:44.144Z,6.87
2017-02-26T05:18:24.753Z,6.89
2017-02-26T05:19:06.422Z,6.85
2017-02-26T05:19:46.989Z,6.85
2017-02-26T05:20:27.640Z,6.88
2017-02-26T05:21:08.286Z,6.88
2017-02-26T05:21:48.965Z,6.93
2017-02-26T05:22:29.617Z,6.88
2017-02-26T05:23:10.275Z,6.84
2017-02-26T05:23:50.916Z,6.82
2017-02-26T05:24:31.569Z,6.85
2017-02-26T05:25:12.198Z,6.93
2017-02-26T05:25:52.791Z,6.93
2017-02-26T05:26:33.422Z,6.85
2017-02-26T05:27:14.057Z,6.87
2017-02-26T05:27:54.618Z,6.85
2017-02-26T05:28:35.270Z,6.85
2017-02-26T05:29:16.931Z,6.82
2017-02-26T05:29:57.495Z,6.79
2017-02-26T05:30:38.148Z,6.89
2017-02-26T05:31:18.804Z,6.85
2017-02-26T05:31:59.477Z,6.99
2017-02-26T05:32:40.109Z,6.82
2017-02-26T05:33:20.764Z,6.85
2017-02-26T05:34:01.432Z,6.95
2017-02-26T05:34:42.068Z,6.89
2017-02-26T05:35:22.661Z,6.84
2017-02-26T05:36:03.369Z,6.87
2017-02-26T05:36:43.981Z,6.85
2017-02-26T05:37:24.605Z,6.85
2017-02-26T05:38:05.273Z,6.88
2017-02-26T05:38:45.874Z,6.82
2017-02-26T05:39:26.434Z,6.85
2017-02-26T05:40:07.094Z,6.82
2017-02-26T05:40:47.737Z,6.79
2017-02-26T05:41:28.395Z,6.88
2017-02-26T05:42:09.084Z,6.89
2017-02-26T05:42:49.713Z,6.95
2017-02-26T05:43:30.368Z,6.81
2017-02-26T05:44:12.069Z,6.88
2017-02-26T05:44:52.678Z,6.85
2017-02-26T05:45:33.419Z,6.97
2017-02-26T05:46:14.009Z,6.99
2017-02-26T05:46:54.659Z,6.81
2017-02-26T05:47:35.254Z,6.85
2017-02-26T05:48:15.943Z,6.84
2017-02-26T05:48:57.615Z,6.82
2017-02-26T05:49:38.170Z,6.85
2017-02-26T05:50:18.830Z,6.87
2017-02-26T05:50:59.480Z,6.95
2017-02-26T05:51:40.130Z,6.85
2017-02-26T05:52:20.782Z,6.95
2017-02-26T05:53:01.459Z,6.93
2017-02-26T05:53:42.106Z,6.96
2017-02-26T05:54:22.761Z,6.96
2017-02-26T05:55:03.414Z,6.92
2017-02-26T05:55:44.042Z,6.93
2017-02-26T05:56:24.620Z,6.96
2017-02-26T05:57:05.263Z,6.87
2017-02-26T05:57:45.898Z,6.97
2017-02-26T05:58:26.453Z,6.87
2017-02-26T05:59:07.130Z,6.95
2017-02-26T05:59:47.753Z,6.84
2017-02-26T06:00:28.316Z,6.95
2017-02-26T06:01:09.005Z,6.84
2017-02-26T06:01:49.684Z,6.97
2017-02-26T06:02:30.363Z,6.95
2017-02-26T06:03:10.938Z,6.81
2017-02-26T06:03:51.509Z,6.99
2017-02-26T06:04:32.132Z,6.95
2017-02-26T06:05:12.728Z,6.82
2017-02-26T06:05:53.322Z,6.93
2017-02-26T06:06:33.879Z,6.85
2017-02-26T06:07:14.543Z,6.85
2017-02-26T06:07:55.239Z,6.85
2017-02-26T06:08:35.846Z,6.87
2017-02-26T06:09:16.424Z,6.88
2017-02-26T06:09:57.045Z,6.81
2017-02-26T06:10:37.705Z,6.84
2017-02-26T06:11:18.390Z,6.85
2017-02-26T06:11:59.053Z,6.79
2017-02-26T06:12:39.722Z,6.84
2017-02-26T06:13:20.352Z,6.82
2017-02-26T06:14:01.014Z,6.82
2017-02-26T06:14:41.677Z,6.87
2017-02-26T06:15:22.358Z,6.85
2017-02-26T06:16:02.921Z,6.84
2017-02-26T06:16:43.592Z,6.82
2017-02-26T06:17:24.293Z,6.82
2017-02-26T06:18:05.890Z,6.77
2017-02-26T06:18:46.446Z,6.78
2017-02-26T06:19:27.110Z,6.79
2017-02-26T06:20:07.749Z,6.75
2017-02-26T06:20:48.337Z,6.78
2017-02-26T06:21:28.987Z,6.79
2017-02-26T06:22:09.612Z,6.77
2017-02-26T06:22:50.184Z,6.78
2017-02-26T06:23:30.834Z,6.78
2017-02-26T06:24:11.464Z,6.78
2017-02-26T06:24:52.041Z,6.75
2017-02-26T06:25:32.692Z,6.74
2017-02-26T06:26:13.350Z,6.78
2017-02-26T06:26:54.405Z,6.74
2017-02-26T06:27:35.069Z,6.79
2017-02-26T06:28:15.724Z,6.81
2017-02-26T06:28:56.369Z,6.75
2017-02-26T06:29:37.018Z,6.78
2017-02-26T06:30:18.740Z,6.77
2017-02-26T06:30:59.359Z,6.77
2017-02-26T06:31:40.010Z,6.78
2017-02-26T06:32:20.665Z,6.82
2017-02-26T06:33:01.303Z,6.84
2017-02-26T06:33:41.938Z,6.79
2017-02-26T06:34:22.587Z,6.82
2017-02-26T06:35:03.199Z,6.85
2017-02-26T06:35:43.815Z,6.79
2017-02-26T06:36:24.519Z,6.85
2017-02-26T06:37:05.199Z,6.92
2017-02-26T06:37:45.804Z,6.84
2017-02-26T06:38:26.413Z,6.89
2017-02-26T06:39:07.022Z,6.82
2017-02-26T06:39:47.711Z,6.82
2017-02-26T06:40:28.282Z,6.84
2017-02-26T06:41:08.935Z,6.78
2017-02-26T06:41:49.581Z,6.87
2017-02-26T06:42:30.139Z,6.82
2017-02-26T06:43:10.789Z,6.78
2017-02-26T06:43:51.424Z,6.88
2017-02-26T06:44:31.994Z,6.88
2017-02-26T06:45:12.642Z,6.85
2017-02-26T06:45:53.307Z,6.87
2017-02-26T06:46:33.966Z,6.82
2017-02-26T06:47:14.600Z,6.87
2017-02-26T06:47:56.259Z,6.79
2017-02-26T06:48:36.837Z,6.85
2017-02-26T06:49:17.479Z,6.87
2017-02-26T06:49:58.157Z,6.96
2017-02-26T06:50:38.823Z,6.96
2017-02-26T06:51:19.422Z,6.95
2017-02-26T06:52:00.010Z,6.85
2017-02-26T06:52:40.664Z,6.93
2017-02-26T06:53:21.354Z,6.87
2017-02-26T06:54:02.962Z,6.95
2017-02-26T06:54:43.519Z,6.97
2017-02-26T06:55:26.158Z,6.97
2017-02-26T06:56:06.815Z,7.03
2017-02-26T06:56:47.425Z,6.96
2017-02-26T06:57:27.998Z,7.1
2017-02-26T06:58:08.638Z,6.97
2017-02-26T06:58:49.223Z,7.11
2017-02-26T06:59:29.923Z,6.96
2017-02-26T07:00:10.503Z,6.99
2017-02-26T07:00:51.149Z,6.99
2017-02-26T07:01:31.729Z,6.99
2017-02-26T07:02:12.332Z,7.07
2017-02-26T07:02:52.904Z,7.02
2017-02-26T07:03:33.557Z,7.11
2017-02-26T07:04:14.145Z,7.06
2017-02-26T07:04:54.836Z,7.06
2017-02-26T07:05:35.492Z,7.1
2017-02-26T07:06:16.172Z,7.11
2017-02-26T07:06:56.795Z,7.18
2017-02-26T07:07:37.452Z,7.21
2017-02-26T07:08:19.024Z,7.18
2017-02-26T07:08:59.681Z,7.15
2017-02-26T07:09:40.331Z,7.31
2017-02-26T07:10:20.944Z,7.15
2017-02-26T07:11:01.567Z,7.2
2017-02-26T07:11:42.215Z,7.24
2017-02-26T07:12:22.867Z,7.28
2017-02-26T07:13:03.511Z,7.23
2017-02-26T07:13:44.174Z,7.24
2017-02-26T07:14:24.882Z,7.25
2017-02-26T07:15:05.489Z,7.31
2017-02-26T07:15:46.173Z,7.33
2017-02-26T07:16:26.781Z,7.33
2017-02-26T07:17:08.495Z,7.38
2017-02-26T07:17:49.111Z,7.38
2017-02-26T07:18:31.695Z,7.38
2017-02-26T07:19:12.367Z,7.39
2017-02-26T07:19:53.009Z,7.43
2017-02-26T07:20:33.705Z,7.38
2017-02-26T07:21:14.400Z,7.43
2017-02-26T07:21:54.987Z,7.39
2017-02-26T07:22:35.630Z,7.43
2017-02-26T07:23:16.328Z,7.43
2017-02-26T07:23:56.912Z,7.47
2017-02-26T07:24:37.544Z,7.43
2017-02-26T07:25:18.164Z,7.45
2017-02-26T07:25:58.839Z,7.45
2017-02-26T07:26:39.525Z,7.48
2017-02-26T07:27:20.108Z,7.43
2017-02-26T07:28:00.771Z,7.48
2017-02-26T07:28:41.451Z,7.47
2017-02-26T07:29:22.037Z,7.47
2017-02-26T07:30:02.654Z,7.43
2017-02-26T07:30:44.293Z,7.45
2017-02-26T07:31:24.985Z,7.47
2017-02-26T07:32:05.557Z,7.43
2017-02-26T07:32:46.235Z,7.4
2017-02-26T07:33:27.917Z,7.48
2017-02-26T07:34:08.580Z,7.45
2017-02-26T07:34:49.245Z,7.45
2017-02-26T07:35:29.914Z,7.43
2017-02-26T07:36:10.548Z,7.47
2017-02-26T07:36:51.181Z,7.43
2017-02-26T07:37:32.038Z,7.51
2017-02-26T07:38:12.689Z,7.43
2017-02-26T07:38:53.343Z,7.43
2017-02-26T07:39:33.997Z,7.43
2017-02-26T07:40:14.669Z,7.43
2017-02-26T07:40:55.315Z,7.43
2017-02-26T07:41:35.970Z,7.48
2017-02-26T07:42:16.608Z,7.47
2017-02-26T07:42:57.264Z,7.42
2017-02-26T07:43:37.915Z,7.48
2017-02-26T07:44:18.576Z,7.47
2017-02-26T07:44:59.219Z,7.4
2017-02-26T07:45:39.831Z,7.45
2017-02-26T07:46:20.395Z,7.53
2017-02-26T07:47:00.975Z,7.53
2017-02-26T07:47:41.674Z,7.48
2017-02-26T07:48:22.341Z,7.53
2017-02-26T07:49:02.939Z,7.58
2017-02-26T07:49:43.588Z,7.58
2017-02-26T07:50:24.250Z,7.51
2017-02-26T07:51:04.956Z,7.57
2017-02-26T07:51:45.546Z,7.57
2017-02-26T07:52:26.469Z,7.72
2017-02-26T07:53:07.068Z,7.63
2017-02-26T07:53:47.763Z,7.72
2017-02-26T07:54:29.397Z,7.73
2017-02-26T07:55:10.048Z,7.72
2017-02-26T07:55:50.705Z,7.72
2017-02-26T07:56:31.298Z,7.7
2017-02-26T07:57:11.873Z,7.7
2017-02-26T07:57:52.468Z,7.69
2017-02-26T07:58:33.096Z,7.79
2017-02-26T07:59:13.697Z,7.79
2017-02-26T07:59:54.399Z,7.82
2017-02-26T08:00:34.998Z,7.76
2017-02-26T08:01:15.725Z,7.76
2017-02-26T08:01:56.347Z,7.79
2017-02-26T08:02:38.021Z,7.8
2017-02-26T08:03:18.665Z,7.88
2017-02-26T08:03:59.313Z,7.82
2017-02-26T08:04:39.956Z,7.94
2017-02-26T08:05:20.528Z,7.9
2017-02-26T08:06:01.187Z,7.9
2017-02-26T08:06:41.867Z,7.9
2017-02-26T08:07:22.464Z,7.83
2017-02-26T08:08:03.024Z,7.91
2017-02-26T08:08:43.676Z,7.93
2017-02-26T08:09:24.283Z,7.98
2017-02-26T08:10:04.875Z,8.01
2017-02-26T08:10:45.475Z,8.01
2017-02-26T08:11:26.405Z,8.03
2017-02-26T08:12:07.098Z,8.05
2017-02-26T08:12:47.693Z,7.97
2017-02-26T08:13:28.278Z,8
2017-02-26T08:14:08.907Z,8
2017-02-26T08:14:49.613Z,8
2017-02-26T08:15:31.227Z,8.03
2017-02-26T08:16:11.792Z,7.94
2017-02-26T08:16:53.487Z,7.97
2017-02-26T08:17:34.168Z,7.93
2017-02-26T08:18:14.762Z,7.94
2017-02-26T08:18:55.338Z,7.93
2017-02-26T08:19:35.974Z,7.94
2017-02-26T08:20:16.578Z,7.94
2017-02-26T08:20:57.162Z,7.94
2017-02-26T08:21:37.719Z,7.98
2017-02-26T08:22:18.389Z,7.98
2017-02-26T08:22:58.986Z,7.93
2017-02-26T08:23:39.678Z,7.97
2017-02-26T08:24:20.282Z,7.97
2017-02-26T08:25:00.906Z,8.05
2017-02-26T08:25:41.592Z,7.98
2017-02-26T08:26:22.175Z,7.93
2017-02-26T08:27:02.797Z,8.05
2017-02-26T08:27:43.475Z,7.97
2017-02-26T08:28:26.178Z,8.03
2017-02-26T08:29:06.812Z,7.93
2017-02-26T08:29:47.374Z,8.03
2017-02-26T08:30:28.001Z,7.95
2017-02-26T08:31:08.653Z,7.97
2017-02-26T08:31:49.309Z,8.06
2017-02-26T08:32:29.961Z,8.01
2017-02-26T08:33:10.636Z,8.1
2017-02-26T08:33:51.269Z,8.03
2017-02-26T08:34:31.943Z,8.03
2017-02-26T08:35:12.595Z,8.09
2017-02-26T08:35:53.202Z,8.03
2017-02-26T08:36:33.829Z,8.09
2017-02-26T08:37:14.502Z,8.13
2017-02-26T08:37:55.167Z,8.1
2017-02-26T08:38:35.777Z,8.1
2017-02-26T08:39:16.442Z,8.09
2017-02-26T08:39:57.087Z,8.15
2017-02-26T08:40:37.745Z,8.15
2017-02-26T08:41:18.390Z,8.12
2017-02-26T08:41:59.042Z,8.26
2017-02-26T08:42:39.712Z,8.24
2017-02-26T08:43:20.302Z,8.24
2017-02-26T08:44:00.957Z,8.3
2017-02-26T08:44:41.569Z,8.33
2017-02-26T08:45:22.250Z,8.44
2017-02-26T08:46:03.925Z,8.45
2017-02-26T08:46:44.541Z,8.51
2017-02-26T08:47:25.219Z,8.58
2017-02-26T08:48:05.865Z,8.69
2017-02-26T08:48:46.535Z,8.69
2017-02-26T08:49:27.182Z,8.81
2017-02-26T08:50:07.836Z,8.88
2017-02-26T08:50:48.595Z,8.95
2017-02-26T08:51:29.245Z,9.1
2017-02-26T08:52:09.943Z,9.11
2017-02-26T08:52:50.556Z,9.03
2017-02-26T08:53:31.205Z,9.1
2017-02-26T08:54:11.857Z,9.16
2017-02-26T08:54:52.505Z,9.16
2017-02-26T08:55:33.189Z,9.26
2017-02-26T08:56:13.847Z,9.21
2017-02-26T08:56:54.539Z,9.23
2017-02-26T08:57:35.143Z,9.28
2017-02-26T08:58:15.798Z,9.25
2017-02-26T08:58:56.500Z,9.23
2017-02-26T08:59:37.150Z,9.32
2017-02-26T09:00:17.732Z,9.29
2017-02-26T09:00:58.386Z,9.28
2017-02-26T09:01:39.029Z,9.32
2017-02-26T09:02:19.694Z,9.29
2017-02-26T09:03:00.367Z,9.32
2017-02-26T09:03:40.982Z,9.26